sensor_id;sensor_type;location;lat;lon;timestamp;temperature;humidity
3186;DHT22;1604;53.700;10.252;2022-07-05T00:01:40;13.50;99.90
3186;DHT22;1604;53.700;10.252;2022-07-05T00:04:43;13.50;99.90
3186;DHT22;1604;53.700;10.252;2022-07-05T00:07:45;13.50;99.90
3186;DHT22;1604;53.700;10.252;2022-07-05T00:10:47;13.50;99.90
3186;DHT22;1604;53.700;10.252;2022-07-05T00:13:49;13.60;99.90
3186;DHT22;1604;53.700;10.252;2022-07-05T00:16:51;13.60;99.90
3186;DHT22;1604;53.700;10.252;2022-07-05T00:19:54;13.60;99.90
3186;DHT22;1604;53.700;10.252;2022-07-05T00:22:56;13.60;99.90
3186;DHT22;1604;53.700;10.252;2022-07-05T00:25:57;13.60;99.90
3186;DHT22;1604;53.700;10.252;2022-07-05T00:28:59;13.60;99.90
3186;DHT22;1604;53.700;10.252;2022-07-05T00:32:02;13.60;99.90
3186;DHT22;1604;53.700;10.252;2022-07-05T00:35:06;13.60;99.90
3186;DHT22;1604;53.700;10.252;2022-07-05T00:38:08;13.60;99.90
3186;DHT22;1604;53.700;10.252;2022-07-05T00:41:10;13.60;99.90
3186;DHT22;1604;53.700;10.252;2022-07-05T00:44:12;13.60;99.90
3186;DHT22;1604;53.700;10.252;2022-07-05T00:47:15;13.50;99.90
3186;DHT22;1604;53.700;10.252;2022-07-05T00:50:18;13.50;99.90
3186;DHT22;1604;53.700;10.252;2022-07-05T00:53:20;13.50;99.90
3186;DHT22;1604;53.700;10.252;2022-07-05T00:56:23;13.50;99.90
3186;DHT22;1604;53.700;10.252;2022-07-05T00:59:26;13.40;99.90
3186;DHT22;1604;53.700;10.252;2022-07-05T01:02:27;13.40;99.90
3186;DHT22;1604;53.700;10.252;2022-07-05T01:05:32;13.40;99.90
3186;DHT22;1604;53.700;10.252;2022-07-05T01:08:37;13.40;99.90
3186;DHT22;1604;53.700;10.252;2022-07-05T01:11:39;13.30;99.90
3186;DHT22;1604;53.700;10.252;2022-07-05T01:14:41;13.20;99.90
3186;DHT22;1604;53.700;10.252;2022-07-05T01:17:44;13.20;99.90
3186;DHT22;1604;53.700;10.252;2022-07-05T01:20:48;13.20;99.90
3186;DHT22;1604;53.700;10.252;2022-07-05T01:23:52;13.20;99.90
3186;DHT22;1604;53.700;10.252;2022-07-05T01:27:02;13.10;99.90
3186;DHT22;1604;53.700;10.252;2022-07-05T01:30:11;13.10;99.90
3186;DHT22;1604;53.700;10.252;2022-07-05T01:33:13;13.10;99.90
3186;DHT22;1604;53.700;10.252;2022-07-05T01:36:16;13.00;99.90
3186;DHT22;1604;53.700;10.252;2022-07-05T01:39:20;13.00;99.90
3186;DHT22;1604;53.700;10.252;2022-07-05T01:42:22;13.00;99.90
3186;DHT22;1604;53.700;10.252;2022-07-05T01:45:23;13.00;99.90
3186;DHT22;1604;53.700;10.252;2022-07-05T01:48:50;12.90;99.90
3186;DHT22;1604;53.700;10.252;2022-07-05T01:51:55;12.90;99.90
3186;DHT22;1604;53.700;10.252;2022-07-05T01:55:01;12.90;99.90
3186;DHT22;1604;53.700;10.252;2022-07-05T01:58:03;12.90;99.90
3186;DHT22;1604;53.700;10.252;2022-07-05T02:01:05;12.90;99.90
3186;DHT22;1604;53.700;10.252;2022-07-05T02:04:09;12.90;99.90
3186;DHT22;1604;53.700;10.252;2022-07-05T02:07:11;12.90;99.90
3186;DHT22;1604;53.700;10.252;2022-07-05T02:10:15;12.90;99.90
3186;DHT22;1604;53.700;10.252;2022-07-05T02:13:17;12.80;99.90
3186;DHT22;1604;53.700;10.252;2022-07-05T02:16:25;12.80;99.90
3186;DHT22;1604;53.700;10.252;2022-07-05T02:19:28;12.80;99.90
3186;DHT22;1604;53.700;10.252;2022-07-05T02:22:32;12.80;99.90
3186;DHT22;1604;53.700;10.252;2022-07-05T02:25:35;12.80;99.90
3186;DHT22;1604;53.700;10.252;2022-07-05T02:28:44;12.70;99.90
3186;DHT22;1604;53.700;10.252;2022-07-05T02:31:46;12.70;99.90
3186;DHT22;1604;53.700;10.252;2022-07-05T02:34:47;12.70;99.90
3186;DHT22;1604;53.700;10.252;2022-07-05T02:37:49;12.70;99.90
3186;DHT22;1604;53.700;10.252;2022-07-05T02:40:52;12.70;99.90
3186;DHT22;1604;53.700;10.252;2022-07-05T02:43:54;12.70;99.90
3186;DHT22;1604;53.700;10.252;2022-07-05T02:46:56;12.60;99.90
3186;DHT22;1604;53.700;10.252;2022-07-05T02:49:59;12.60;99.90
3186;DHT22;1604;53.700;10.252;2022-07-05T02:53:02;12.60;99.90
3186;DHT22;1604;53.700;10.252;2022-07-05T02:56:06;12.60;99.90
3186;DHT22;1604;53.700;10.252;2022-07-05T02:59:08;12.50;99.90
3186;DHT22;1604;53.700;10.252;2022-07-05T03:02:10;12.50;99.90
3186;DHT22;1604;53.700;10.252;2022-07-05T03:05:12;12.50;99.90
3186;DHT22;1604;53.700;10.252;2022-07-05T03:08:14;12.40;99.90
3186;DHT22;1604;53.700;10.252;2022-07-05T03:11:17;12.40;99.90
3186;DHT22;1604;53.700;10.252;2022-07-05T03:14:20;12.40;99.90
3186;DHT22;1604;53.700;10.252;2022-07-05T03:17:22;12.40;99.90
3186;DHT22;1604;53.700;10.252;2022-07-05T03:20:24;12.40;99.90
3186;DHT22;1604;53.700;10.252;2022-07-05T03:23:26;12.30;99.90
3186;DHT22;1604;53.700;10.252;2022-07-05T03:26:29;12.30;99.90
3186;DHT22;1604;53.700;10.252;2022-07-05T03:29:31;12.30;99.90
3186;DHT22;1604;53.700;10.252;2022-07-05T03:32:33;12.20;99.90
3186;DHT22;1604;53.700;10.252;2022-07-05T03:35:35;12.20;99.90
3186;DHT22;1604;53.700;10.252;2022-07-05T03:38:37;12.20;99.90
3186;DHT22;1604;53.700;10.252;2022-07-05T03:41:40;12.20;99.90
3186;DHT22;1604;53.700;10.252;2022-07-05T03:44:42;12.20;99.90
3186;DHT22;1604;53.700;10.252;2022-07-05T03:47:44;12.20;99.90
3186;DHT22;1604;53.700;10.252;2022-07-05T03:50:46;12.20;99.90
3186;DHT22;1604;53.700;10.252;2022-07-05T03:53:49;12.20;99.90
3186;DHT22;1604;53.700;10.252;2022-07-05T03:56:52;12.20;99.90
3186;DHT22;1604;53.700;10.252;2022-07-05T03:59:54;12.30;99.90
3186;DHT22;1604;53.700;10.252;2022-07-05T04:02:56;12.30;99.90
3186;DHT22;1604;53.700;10.252;2022-07-05T04:05:58;12.30;99.90
3186;DHT22;1604;53.700;10.252;2022-07-05T04:09:00;12.40;99.90
3186;DHT22;1604;53.700;10.252;2022-07-05T04:12:04;12.40;99.90
3186;DHT22;1604;53.700;10.252;2022-07-05T04:15:07;12.50;99.90
3186;DHT22;1604;53.700;10.252;2022-07-05T04:18:09;12.60;99.90
3186;DHT22;1604;53.700;10.252;2022-07-05T04:21:11;12.60;99.90
3186;DHT22;1604;53.700;10.252;2022-07-05T04:24:13;12.70;99.90
3186;DHT22;1604;53.700;10.252;2022-07-05T04:27:17;12.80;99.90
3186;DHT22;1604;53.700;10.252;2022-07-05T04:30:21;12.90;99.90
3186;DHT22;1604;53.700;10.252;2022-07-05T04:33:23;13.00;99.90
3186;DHT22;1604;53.700;10.252;2022-07-05T04:36:25;13.00;99.90
3186;DHT22;1604;53.700;10.252;2022-07-05T04:39:28;13.10;99.90
3186;DHT22;1604;53.700;10.252;2022-07-05T04:42:32;13.20;99.90
3186;DHT22;1604;53.700;10.252;2022-07-05T04:45:34;13.30;99.90
3186;DHT22;1604;53.700;10.252;2022-07-05T04:48:35;13.40;99.90
3186;DHT22;1604;53.700;10.252;2022-07-05T04:51:37;13.60;99.90
3186;DHT22;1604;53.700;10.252;2022-07-05T04:54:39;13.80;99.90
3186;DHT22;1604;53.700;10.252;2022-07-05T04:57:43;14.00;99.90
3186;DHT22;1604;53.700;10.252;2022-07-05T05:00:45;14.10;99.90
3186;DHT22;1604;53.700;10.252;2022-07-05T05:03:47;14.30;99.90
3186;DHT22;1604;53.700;10.252;2022-07-05T05:06:49;14.60;99.90
3186;DHT22;1604;53.700;10.252;2022-07-05T05:09:50;14.80;99.90
3186;DHT22;1604;53.700;10.252;2022-07-05T05:12:54;15.00;99.90
3186;DHT22;1604;53.700;10.252;2022-07-05T05:15:55;15.10;99.90
3186;DHT22;1604;53.700;10.252;2022-07-05T05:18:57;15.10;99.90
3186;DHT22;1604;53.700;10.252;2022-07-05T05:21:59;15.20;99.90
3186;DHT22;1604;53.700;10.252;2022-07-05T05:25:01;15.20;99.70
3186;DHT22;1604;53.700;10.252;2022-07-05T05:28:05;15.30;99.70
3186;DHT22;1604;53.700;10.252;2022-07-05T05:31:07;15.30;99.70
3186;DHT22;1604;53.700;10.252;2022-07-05T05:34:09;15.40;99.60
3186;DHT22;1604;53.700;10.252;2022-07-05T05:37:11;15.40;99.60
3186;DHT22;1604;53.700;10.252;2022-07-05T05:40:13;15.50;99.60
3186;DHT22;1604;53.700;10.252;2022-07-05T05:43:16;15.50;99.50
3186;DHT22;1604;53.700;10.252;2022-07-05T05:46:18;15.50;99.50
3186;DHT22;1604;53.700;10.252;2022-07-05T05:49:20;15.60;99.40
3186;DHT22;1604;53.700;10.252;2022-07-05T05:52:22;15.60;99.30
3186;DHT22;1604;53.700;10.252;2022-07-05T05:55:25;15.60;99.30
3186;DHT22;1604;53.700;10.252;2022-07-05T05:58:28;15.60;99.30
3186;DHT22;1604;53.700;10.252;2022-07-05T06:01:31;15.80;99.30
3186;DHT22;1604;53.700;10.252;2022-07-05T06:04:33;16.00;99.10
3186;DHT22;1604;53.700;10.252;2022-07-05T06:07:49;16.20;99.00
3186;DHT22;1604;53.700;10.252;2022-07-05T06:10:51;16.50;98.30
3186;DHT22;1604;53.700;10.252;2022-07-05T06:13:54;16.80;97.70
3186;DHT22;1604;53.700;10.252;2022-07-05T06:16:56;16.90;97.40
3186;DHT22;1604;53.700;10.252;2022-07-05T06:19:58;17.00;97.00
3186;DHT22;1604;53.700;10.252;2022-07-05T06:23:01;17.10;96.70
3186;DHT22;1604;53.700;10.252;2022-07-05T06:26:03;17.10;96.80
3186;DHT22;1604;53.700;10.252;2022-07-05T06:29:06;17.20;96.00
3186;DHT22;1604;53.700;10.252;2022-07-05T06:32:09;17.30;96.00
3186;DHT22;1604;53.700;10.252;2022-07-05T06:35:10;17.40;95.70
3186;DHT22;1604;53.700;10.252;2022-07-05T06:38:12;17.50;95.20
3186;DHT22;1604;53.700;10.252;2022-07-05T06:41:14;17.70;95.10
3186;DHT22;1604;53.700;10.252;2022-07-05T06:44:17;17.80;94.40
3186;DHT22;1604;53.700;10.252;2022-07-05T06:47:19;17.90;94.20
3186;DHT22;1604;53.700;10.252;2022-07-05T06:50:21;17.90;93.60
3186;DHT22;1604;53.700;10.252;2022-07-05T06:53:23;18.00;94.10
3186;DHT22;1604;53.700;10.252;2022-07-05T06:56:25;18.10;93.90
3186;DHT22;1604;53.700;10.252;2022-07-05T06:59:28;18.10;93.60
3186;DHT22;1604;53.700;10.252;2022-07-05T07:02:30;18.10;93.20
3186;DHT22;1604;53.700;10.252;2022-07-05T07:05:32;18.10;92.70
3186;DHT22;1604;53.700;10.252;2022-07-05T07:08:34;18.10;93.40
3186;DHT22;1604;53.700;10.252;2022-07-05T07:11:53;18.10;93.50
3186;DHT22;1604;53.700;10.252;2022-07-05T07:14:57;18.30;93.70
3186;DHT22;1604;53.700;10.252;2022-07-05T07:18:00;18.40;93.20
3186;DHT22;1604;53.700;10.252;2022-07-05T07:21:02;18.40;92.20
3186;DHT22;1604;53.700;10.252;2022-07-05T07:24:04;18.40;91.70
3186;DHT22;1604;53.700;10.252;2022-07-05T07:27:06;18.50;91.50
3186;DHT22;1604;53.700;10.252;2022-07-05T07:30:11;18.50;92.00
3186;DHT22;1604;53.700;10.252;2022-07-05T07:33:13;18.50;92.00
3186;DHT22;1604;53.700;10.252;2022-07-05T07:36:15;18.50;92.20
3186;DHT22;1604;53.700;10.252;2022-07-05T07:39:17;18.60;92.50
3186;DHT22;1604;53.700;10.252;2022-07-05T07:42:19;18.80;91.60
3186;DHT22;1604;53.700;10.252;2022-07-05T07:45:23;19.10;92.30
3186;DHT22;1604;53.700;10.252;2022-07-05T07:48:26;19.60;86.80
3186;DHT22;1604;53.700;10.252;2022-07-05T07:51:29;20.00;86.50
3186;DHT22;1604;53.700;10.252;2022-07-05T07:54:31;20.30;84.80
3186;DHT22;1604;53.700;10.252;2022-07-05T07:57:33;20.50;83.20
3186;DHT22;1604;53.700;10.252;2022-07-05T08:00:36;20.50;81.30
3186;DHT22;1604;53.700;10.252;2022-07-05T08:03:38;20.80;81.80
3186;DHT22;1604;53.700;10.252;2022-07-05T08:06:41;21.00;77.20
3186;DHT22;1604;53.700;10.252;2022-07-05T08:09:43;21.20;76.20
3186;DHT22;1604;53.700;10.252;2022-07-05T08:12:45;21.30;73.70
3186;DHT22;1604;53.700;10.252;2022-07-05T08:15:48;21.30;71.60
3186;DHT22;1604;53.700;10.252;2022-07-05T08:18:50;21.40;73.10
3186;DHT22;1604;53.700;10.252;2022-07-05T08:22:09;21.60;71.70
3186;DHT22;1604;53.700;10.252;2022-07-05T08:25:11;21.80;69.90
3186;DHT22;1604;53.700;10.252;2022-07-05T08:28:14;22.00;69.90
3186;DHT22;1604;53.700;10.252;2022-07-05T08:31:17;22.30;64.70
3186;DHT22;1604;53.700;10.252;2022-07-05T08:34:20;22.40;63.10
3186;DHT22;1604;53.700;10.252;2022-07-05T08:37:22;22.60;65.00
3186;DHT22;1604;53.700;10.252;2022-07-05T08:40:26;22.70;65.10
3186;DHT22;1604;53.700;10.252;2022-07-05T08:43:28;22.70;61.50
3186;DHT22;1604;53.700;10.252;2022-07-05T08:46:34;22.60;57.60
3186;DHT22;1604;53.700;10.252;2022-07-05T08:49:39;22.40;60.00
3186;DHT22;1604;53.700;10.252;2022-07-05T08:52:43;22.20;61.90
3186;DHT22;1604;53.700;10.252;2022-07-05T08:55:47;22.10;62.30
3186;DHT22;1604;53.700;10.252;2022-07-05T08:58:49;22.00;64.00
3186;DHT22;1604;53.700;10.252;2022-07-05T09:01:52;22.10;62.20
3186;DHT22;1604;53.700;10.252;2022-07-05T09:04:56;22.10;61.10
3186;DHT22;1604;53.700;10.252;2022-07-05T09:07:59;22.10;61.60
3186;DHT22;1604;53.700;10.252;2022-07-05T09:11:01;22.30;61.90
3186;DHT22;1604;53.700;10.252;2022-07-05T09:14:06;22.70;61.30
3186;DHT22;1604;53.700;10.252;2022-07-05T09:17:09;22.80;59.10
3186;DHT22;1604;53.700;10.252;2022-07-05T09:20:13;22.80;57.60
3186;DHT22;1604;53.700;10.252;2022-07-05T09:23:20;22.80;57.80
3186;DHT22;1604;53.700;10.252;2022-07-05T09:26:31;22.90;58.60
3186;DHT22;1604;53.700;10.252;2022-07-05T09:29:33;22.90;58.40
3186;DHT22;1604;53.700;10.252;2022-07-05T09:32:36;22.90;58.20
3186;DHT22;1604;53.700;10.252;2022-07-05T09:35:52;22.80;57.80
3186;DHT22;1604;53.700;10.252;2022-07-05T09:38:55;22.80;57.50
3186;DHT22;1604;53.700;10.252;2022-07-05T09:42:15;22.60;57.80
3186;DHT22;1604;53.700;10.252;2022-07-05T09:45:23;22.40;59.40
3186;DHT22;1604;53.700;10.252;2022-07-05T09:48:27;22.20;60.00
3186;DHT22;1604;53.700;10.252;2022-07-05T09:51:29;22.20;61.20
3186;DHT22;1604;53.700;10.252;2022-07-05T09:55:00;22.20;59.00
3186;DHT22;1604;53.700;10.252;2022-07-05T09:58:02;22.20;60.30
3186;DHT22;1604;53.700;10.252;2022-07-05T10:01:23;22.30;60.00
3186;DHT22;1604;53.700;10.252;2022-07-05T10:04:26;22.30;59.00
3186;DHT22;1604;53.700;10.252;2022-07-05T10:07:30;22.20;58.10
3186;DHT22;1604;53.700;10.252;2022-07-05T10:10:32;22.20;61.10
3186;DHT22;1604;53.700;10.252;2022-07-05T10:13:34;22.50;59.40
3186;DHT22;1604;53.700;10.252;2022-07-05T10:16:37;22.90;57.80
3186;DHT22;1604;53.700;10.252;2022-07-05T10:19:42;23.20;55.50
3186;DHT22;1604;53.700;10.252;2022-07-05T10:22:47;23.30;55.40
3186;DHT22;1604;53.700;10.252;2022-07-05T10:25:49;23.50;56.10
3186;DHT22;1604;53.700;10.252;2022-07-05T10:28:53;23.60;56.10
3186;DHT22;1604;53.700;10.252;2022-07-05T10:31:57;23.80;56.20
3186;DHT22;1604;53.700;10.252;2022-07-05T10:35:02;23.90;54.60
3186;DHT22;1604;53.700;10.252;2022-07-05T10:38:04;24.10;56.30
3186;DHT22;1604;53.700;10.252;2022-07-05T10:41:13;24.50;52.80
3186;DHT22;1604;53.700;10.252;2022-07-05T10:44:25;24.60;53.50
3186;DHT22;1604;53.700;10.252;2022-07-05T10:47:27;24.80;54.70
3186;DHT22;1604;53.700;10.252;2022-07-05T10:50:43;24.90;53.50
3186;DHT22;1604;53.700;10.252;2022-07-05T10:54:06;25.00;52.80
3186;DHT22;1604;53.700;10.252;2022-07-05T10:57:23;25.20;49.80
3186;DHT22;1604;53.700;10.252;2022-07-05T11:00:25;25.00;49.50
3186;DHT22;1604;53.700;10.252;2022-07-05T11:03:33;24.70;51.30
3186;DHT22;1604;53.700;10.252;2022-07-05T11:06:42;24.30;52.40
3186;DHT22;1604;53.700;10.252;2022-07-05T11:09:59;24.10;53.10
3186;DHT22;1604;53.700;10.252;2022-07-05T11:13:36;24.00;53.70
3186;DHT22;1604;53.700;10.252;2022-07-05T11:16:38;23.80;55.10
3186;DHT22;1604;53.700;10.252;2022-07-05T11:20:05;23.70;54.70
3186;DHT22;1604;53.700;10.252;2022-07-05T11:23:10;23.80;54.10
3186;DHT22;1604;53.700;10.252;2022-07-05T11:26:12;23.90;54.90
3186;DHT22;1604;53.700;10.252;2022-07-05T11:29:39;24.10;55.00
3186;DHT22;1604;53.700;10.252;2022-07-05T11:32:41;24.40;55.20
3186;DHT22;1604;53.700;10.252;2022-07-05T11:35:43;24.60;55.30
3186;DHT22;1604;53.700;10.252;2022-07-05T11:39:11;24.80;52.90
3186;DHT22;1604;53.700;10.252;2022-07-05T11:42:19;24.90;51.60
3186;DHT22;1604;53.700;10.252;2022-07-05T11:45:21;24.80;52.70
3186;DHT22;1604;53.700;10.252;2022-07-05T11:48:25;25.00;53.80
3186;DHT22;1604;53.700;10.252;2022-07-05T11:51:27;25.20;52.90
3186;DHT22;1604;53.700;10.252;2022-07-05T11:54:33;25.40;52.10
3186;DHT22;1604;53.700;10.252;2022-07-05T11:57:35;25.60;51.70
3186;DHT22;1604;53.700;10.252;2022-07-05T12:00:38;25.80;51.10
3186;DHT22;1604;53.700;10.252;2022-07-05T12:03:40;25.70;50.90
3186;DHT22;1604;53.700;10.252;2022-07-05T12:06:42;25.80;51.60
3186;DHT22;1604;53.700;10.252;2022-07-05T12:09:46;26.00;51.80
3186;DHT22;1604;53.700;10.252;2022-07-05T12:13:10;26.00;50.00
3186;DHT22;1604;53.700;10.252;2022-07-05T12:16:13;25.90;50.60
3186;DHT22;1604;53.700;10.252;2022-07-05T12:19:24;25.90;52.00
3186;DHT22;1604;53.700;10.252;2022-07-05T12:22:31;25.80;50.10
3186;DHT22;1604;53.700;10.252;2022-07-05T12:25:34;25.60;50.10
3186;DHT22;1604;53.700;10.252;2022-07-05T12:28:37;25.50;50.90
3186;DHT22;1604;53.700;10.252;2022-07-05T12:31:57;25.50;51.90
3186;DHT22;1604;53.700;10.252;2022-07-05T12:35:00;25.60;51.70
3186;DHT22;1604;53.700;10.252;2022-07-05T12:38:08;25.60;52.30
3186;DHT22;1604;53.700;10.252;2022-07-05T12:41:20;25.60;52.00
3186;DHT22;1604;53.700;10.252;2022-07-05T12:44:22;25.60;52.10
3186;DHT22;1604;53.700;10.252;2022-07-05T12:47:24;25.60;53.80
3186;DHT22;1604;53.700;10.252;2022-07-05T12:50:54;25.70;52.30
3186;DHT22;1604;53.700;10.252;2022-07-05T12:53:55;25.90;50.50
3186;DHT22;1604;53.700;10.252;2022-07-05T12:57:16;25.90;51.50
3186;DHT22;1604;53.700;10.252;2022-07-05T13:00:35;25.80;51.00
3186;DHT22;1604;53.700;10.252;2022-07-05T13:03:58;25.60;52.00
3186;DHT22;1604;53.700;10.252;2022-07-05T13:07:02;25.60;51.90
3186;DHT22;1604;53.700;10.252;2022-07-05T13:10:18;25.50;52.00
3186;DHT22;1604;53.700;10.252;2022-07-05T13:13:21;25.20;53.10
3186;DHT22;1604;53.700;10.252;2022-07-05T13:16:23;25.00;53.20
3186;DHT22;1604;53.700;10.252;2022-07-05T13:19:25;24.80;54.40
3186;DHT22;1604;53.700;10.252;2022-07-05T13:22:27;24.70;55.40
3186;DHT22;1604;53.700;10.252;2022-07-05T13:25:29;24.50;55.30
3186;DHT22;1604;53.700;10.252;2022-07-05T13:28:32;24.30;56.00
3186;DHT22;1604;53.700;10.252;2022-07-05T13:31:34;24.20;57.00
3186;DHT22;1604;53.700;10.252;2022-07-05T13:34:36;24.20;57.40
3186;DHT22;1604;53.700;10.252;2022-07-05T13:37:38;24.20;57.50
3186;DHT22;1604;53.700;10.252;2022-07-05T13:40:40;24.10;57.70
3186;DHT22;1604;53.700;10.252;2022-07-05T13:43:43;24.00;57.40
3186;DHT22;1604;53.700;10.252;2022-07-05T13:46:45;23.80;58.20
3186;DHT22;1604;53.700;10.252;2022-07-05T13:49:47;23.60;59.20
3186;DHT22;1604;53.700;10.252;2022-07-05T13:53:09;23.50;59.70
3186;DHT22;1604;53.700;10.252;2022-07-05T13:56:11;23.40;60.60
3186;DHT22;1604;53.700;10.252;2022-07-05T13:59:15;23.20;61.30
3186;DHT22;1604;53.700;10.252;2022-07-05T14:02:17;23.10;61.80
3186;DHT22;1604;53.700;10.252;2022-07-05T14:05:19;22.90;62.10
3186;DHT22;1604;53.700;10.252;2022-07-05T14:08:21;22.70;63.40
3186;DHT22;1604;53.700;10.252;2022-07-05T14:11:23;22.60;64.20
3186;DHT22;1604;53.700;10.252;2022-07-05T14:14:28;22.50;64.20
3186;DHT22;1604;53.700;10.252;2022-07-05T14:17:30;22.30;63.80
3186;DHT22;1604;53.700;10.252;2022-07-05T14:20:31;22.10;64.90
3186;DHT22;1604;53.700;10.252;2022-07-05T14:23:33;22.10;64.80
3186;DHT22;1604;53.700;10.252;2022-07-05T14:26:35;22.00;63.70
3186;DHT22;1604;53.700;10.252;2022-07-05T14:29:38;21.90;64.00
3186;DHT22;1604;53.700;10.252;2022-07-05T14:32:40;21.90;64.30
3186;DHT22;1604;53.700;10.252;2022-07-05T14:35:42;21.90;64.30
3186;DHT22;1604;53.700;10.252;2022-07-05T14:38:44;21.90;65.20
3186;DHT22;1604;53.700;10.252;2022-07-05T14:41:46;22.00;65.10
3186;DHT22;1604;53.700;10.252;2022-07-05T14:44:49;22.00;64.40
3186;DHT22;1604;53.700;10.252;2022-07-05T14:47:52;22.10;64.80
3186;DHT22;1604;53.700;10.252;2022-07-05T14:50:54;22.20;66.00
3186;DHT22;1604;53.700;10.252;2022-07-05T14:53:56;22.10;65.40
3186;DHT22;1604;53.700;10.252;2022-07-05T14:56:57;22.20;64.80
3186;DHT22;1604;53.700;10.252;2022-07-05T15:00:01;22.20;65.10
3186;DHT22;1604;53.700;10.252;2022-07-05T15:03:03;22.20;65.70
3186;DHT22;1604;53.700;10.252;2022-07-05T15:06:07;22.10;66.20
3186;DHT22;1604;53.700;10.252;2022-07-05T15:09:09;22.00;65.30
3186;DHT22;1604;53.700;10.252;2022-07-05T15:12:11;22.00;65.90
3186;DHT22;1604;53.700;10.252;2022-07-05T15:15:14;21.90;65.40
3186;DHT22;1604;53.700;10.252;2022-07-05T15:18:16;21.80;65.10
3186;DHT22;1604;53.700;10.252;2022-07-05T15:21:18;21.70;66.40
3186;DHT22;1604;53.700;10.252;2022-07-05T15:24:20;21.50;67.60
3186;DHT22;1604;53.700;10.252;2022-07-05T15:27:22;21.40;67.90
3186;DHT22;1604;53.700;10.252;2022-07-05T15:30:28;21.40;68.40
3186;DHT22;1604;53.700;10.252;2022-07-05T15:33:29;21.30;69.90
3186;DHT22;1604;53.700;10.252;2022-07-05T15:36:32;21.40;72.00
3186;DHT22;1604;53.700;10.252;2022-07-05T15:39:34;21.40;69.10
3186;DHT22;1604;53.700;10.252;2022-07-05T15:42:37;21.40;71.20
3186;DHT22;1604;53.700;10.252;2022-07-05T15:45:41;21.50;69.80
3186;DHT22;1604;53.700;10.252;2022-07-05T15:48:43;21.60;69.30
3186;DHT22;1604;53.700;10.252;2022-07-05T15:51:45;21.70;70.20
3186;DHT22;1604;53.700;10.252;2022-07-05T15:54:47;21.80;69.00
3186;DHT22;1604;53.700;10.252;2022-07-05T15:57:50;21.80;67.90
3186;DHT22;1604;53.700;10.252;2022-07-05T16:00:53;21.70;68.40
3186;DHT22;1604;53.700;10.252;2022-07-05T16:03:56;21.50;69.00
3186;DHT22;1604;53.700;10.252;2022-07-05T16:06:59;21.40;67.80
3186;DHT22;1604;53.700;10.252;2022-07-05T16:10:01;21.40;67.60
3186;DHT22;1604;53.700;10.252;2022-07-05T16:13:02;21.20;66.90
3186;DHT22;1604;53.700;10.252;2022-07-05T16:16:06;21.10;68.40
3186;DHT22;1604;53.700;10.252;2022-07-05T16:19:13;21.00;68.90
3186;DHT22;1604;53.700;10.252;2022-07-05T16:22:15;21.00;69.90
3186;DHT22;1604;53.700;10.252;2022-07-05T16:25:17;20.90;70.30
3186;DHT22;1604;53.700;10.252;2022-07-05T16:28:19;20.80;72.40
3186;DHT22;1604;53.700;10.252;2022-07-05T16:31:24;20.70;72.80
3186;DHT22;1604;53.700;10.252;2022-07-05T16:34:27;20.60;73.90
3186;DHT22;1604;53.700;10.252;2022-07-05T16:37:29;20.50;72.70
3186;DHT22;1604;53.700;10.252;2022-07-05T16:40:31;20.40;73.50
3186;DHT22;1604;53.700;10.252;2022-07-05T16:43:33;20.40;74.00
3186;DHT22;1604;53.700;10.252;2022-07-05T16:46:38;20.40;72.10
3186;DHT22;1604;53.700;10.252;2022-07-05T16:49:40;20.30;72.60
3186;DHT22;1604;53.700;10.252;2022-07-05T16:52:43;20.30;72.90
3186;DHT22;1604;53.700;10.252;2022-07-05T16:55:45;20.20;73.30
3186;DHT22;1604;53.700;10.252;2022-07-05T16:58:50;20.10;72.60
3186;DHT22;1604;53.700;10.252;2022-07-05T17:01:55;20.00;73.10
3186;DHT22;1604;53.700;10.252;2022-07-05T17:04:57;20.00;73.50
3186;DHT22;1604;53.700;10.252;2022-07-05T17:07:59;19.90;74.00
3186;DHT22;1604;53.700;10.252;2022-07-05T17:11:01;19.80;74.20
3186;DHT22;1604;53.700;10.252;2022-07-05T17:14:03;19.70;75.30
3186;DHT22;1604;53.700;10.252;2022-07-05T17:17:06;19.60;76.70
3186;DHT22;1604;53.700;10.252;2022-07-05T17:20:09;19.50;76.80
3186;DHT22;1604;53.700;10.252;2022-07-05T17:23:11;19.40;77.00
3186;DHT22;1604;53.700;10.252;2022-07-05T17:26:15;19.40;77.40
3186;DHT22;1604;53.700;10.252;2022-07-05T17:29:17;19.30;78.20
3186;DHT22;1604;53.700;10.252;2022-07-05T17:32:22;19.20;79.00
3186;DHT22;1604;53.700;10.252;2022-07-05T17:35:24;19.30;79.30
3186;DHT22;1604;53.700;10.252;2022-07-05T17:38:26;19.20;78.60
3186;DHT22;1604;53.700;10.252;2022-07-05T17:41:28;19.30;79.50
3186;DHT22;1604;53.700;10.252;2022-07-05T17:44:30;19.30;78.30
3186;DHT22;1604;53.700;10.252;2022-07-05T17:47:33;19.30;76.20
3186;DHT22;1604;53.700;10.252;2022-07-05T17:50:35;19.30;75.20
3186;DHT22;1604;53.700;10.252;2022-07-05T17:53:37;19.20;75.80
3186;DHT22;1604;53.700;10.252;2022-07-05T17:56:40;19.20;75.90
3186;DHT22;1604;53.700;10.252;2022-07-05T17:59:42;19.10;75.50
3186;DHT22;1604;53.700;10.252;2022-07-05T18:02:45;19.10;75.90
3186;DHT22;1604;53.700;10.252;2022-07-05T18:05:47;19.00;75.20
3186;DHT22;1604;53.700;10.252;2022-07-05T18:08:49;18.90;76.10
3186;DHT22;1604;53.700;10.252;2022-07-05T18:11:54;18.90;76.50
3186;DHT22;1604;53.700;10.252;2022-07-05T18:14:55;18.80;77.30
3186;DHT22;1604;53.700;10.252;2022-07-05T18:17:59;18.70;76.80
3186;DHT22;1604;53.700;10.252;2022-07-05T18:21:01;18.60;76.50
3186;DHT22;1604;53.700;10.252;2022-07-05T18:24:03;18.50;76.20
3186;DHT22;1604;53.700;10.252;2022-07-05T18:27:05;18.50;75.90
3186;DHT22;1604;53.700;10.252;2022-07-05T18:30:13;18.40;76.10
3186;DHT22;1604;53.700;10.252;2022-07-05T18:33:17;18.30;76.50
3186;DHT22;1604;53.700;10.252;2022-07-05T18:36:19;18.20;77.80
3186;DHT22;1604;53.700;10.252;2022-07-05T18:39:21;18.10;79.20
3186;DHT22;1604;53.700;10.252;2022-07-05T18:42:23;18.10;79.90
3186;DHT22;1604;53.700;10.252;2022-07-05T18:45:25;18.10;80.90
3186;DHT22;1604;53.700;10.252;2022-07-05T18:48:28;18.00;81.80
3186;DHT22;1604;53.700;10.252;2022-07-05T18:51:30;18.00;82.80
3186;DHT22;1604;53.700;10.252;2022-07-05T18:54:32;17.90;83.50
3186;DHT22;1604;53.700;10.252;2022-07-05T18:57:34;17.80;84.20
3186;DHT22;1604;53.700;10.252;2022-07-05T19:00:36;17.70;84.20
3186;DHT22;1604;53.700;10.252;2022-07-05T19:03:39;17.60;84.70
3186;DHT22;1604;53.700;10.252;2022-07-05T19:06:41;17.60;84.40
3186;DHT22;1604;53.700;10.252;2022-07-05T19:10:00;17.50;84.70
3186;DHT22;1604;53.700;10.252;2022-07-05T19:13:19;17.40;84.90
3186;DHT22;1604;53.700;10.252;2022-07-05T19:16:39;17.30;85.50
3186;DHT22;1604;53.700;10.252;2022-07-05T19:19:42;17.20;86.20
3186;DHT22;1604;53.700;10.252;2022-07-05T19:22:44;17.10;86.80
3186;DHT22;1604;53.700;10.252;2022-07-05T19:25:46;17.00;87.30
3186;DHT22;1604;53.700;10.252;2022-07-05T19:28:48;16.90;88.00
3186;DHT22;1604;53.700;10.252;2022-07-05T19:31:50;16.90;88.40
3186;DHT22;1604;53.700;10.252;2022-07-05T19:34:53;16.80;89.00
3186;DHT22;1604;53.700;10.252;2022-07-05T19:37:57;16.80;89.20
3186;DHT22;1604;53.700;10.252;2022-07-05T19:40:59;16.70;89.70